sensor_id;sensor_type;location;lat;lon;timestamp;P1;durP1;ratioP1;P2;durP2;ratioP2
74650;SDS011;63169;46.042;14.592;2023-02-15T00:01:04;18.95;;;11.05;;
74650;SDS011;63169;46.042;14.592;2023-02-15T00:03:31;26.23;;;11.52;;
74650;SDS011;63169;46.042;14.592;2023-02-15T00:05:57;22.20;;;11.23;;
74650;SDS011;63169;46.042;14.592;2023-02-15T00:08:22;19.67;;;9.98;;
74650;SDS011;63169;46.042;14.592;2023-02-15T00:10:48;23.25;;;10.43;;
74650;SDS011;63169;46.042;14.592;2023-02-15T00:13:13;23.20;;;11.15;;
74650;SDS011;63169;46.042;14.592;2023-02-15T00:15:38;21.75;;;10.32;;
74650;SDS011;63169;46.042;14.592;2023-02-15T00:18:04;22.10;;;9.25;;
74650;SDS011;63169;46.042;14.592;2023-02-15T00:20:29;22.33;;;10.85;;
74650;SDS011;63169;46.042;14.592;2023-02-15T00:22:54;20.00;;;9.88;;
74650;SDS011;63169;46.042;14.592;2023-02-15T00:25:20;21.15;;;9.13;;
74650;SDS011;63169;46.042;14.592;2023-02-15T00:27:45;20.27;;;10.63;;
74650;SDS011;63169;46.042;14.592;2023-02-15T00:30:10;25.15;;;11.05;;
74650;SDS011;63169;46.042;14.592;2023-02-15T00:32:36;24.13;;;11.98;;
74650;SDS011;63169;46.042;14.592;2023-02-15T00:35:02;17.80;;;10.88;;
74650;SDS011;63169;46.042;14.592;2023-02-15T00:37:27;18.98;;;10.48;;
74650;SDS011;63169;46.042;14.592;2023-02-15T00:39:52;25.27;;;12.43;;
74650;SDS011;63169;46.042;14.592;2023-02-15T00:42:18;24.58;;;11.48;;
74650;SDS011;63169;46.042;14.592;2023-02-15T00:44:43;22.65;;;12.63;;
74650;SDS011;63169;46.042;14.592;2023-02-15T00:47:09;25.40;;;11.18;;
74650;SDS011;63169;46.042;14.592;2023-02-15T00:49:34;25.08;;;11.55;;
74650;SDS011;63169;46.042;14.592;2023-02-15T00:52:00;23.77;;;12.38;;
74650;SDS011;63169;46.042;14.592;2023-02-15T00:54:25;22.63;;;12.98;;
74650;SDS011;63169;46.042;14.592;2023-02-15T00:56:50;23.65;;;12.80;;
74650;SDS011;63169;46.042;14.592;2023-02-15T00:59:16;27.83;;;13.90;;
74650;SDS011;63169;46.042;14.592;2023-02-15T01:01:41;27.27;;;14.05;;
74650;SDS011;63169;46.042;14.592;2023-02-15T01:04:06;26.83;;;13.00;;
74650;SDS011;63169;46.042;14.592;2023-02-15T01:06:32;24.33;;;13.07;;
74650;SDS011;63169;46.042;14.592;2023-02-15T01:08:57;25.10;;;12.73;;
74650;SDS011;63169;46.042;14.592;2023-02-15T01:11:23;23.48;;;11.82;;
74650;SDS011;63169;46.042;14.592;2023-02-15T01:13:49;23.27;;;11.70;;
74650;SDS011;63169;46.042;14.592;2023-02-15T01:16:18;21.40;;;12.07;;
74650;SDS011;63169;46.042;14.592;2023-02-15T01:18:44;22.17;;;12.63;;
74650;SDS011;63169;46.042;14.592;2023-02-15T01:21:10;27.83;;;12.50;;
74650;SDS011;63169;46.042;14.592;2023-02-15T01:23:39;27.55;;;13.77;;
74650;SDS011;63169;46.042;14.592;2023-02-15T01:26:04;23.17;;;12.63;;
74650;SDS011;63169;46.042;14.592;2023-02-15T01:28:30;25.80;;;13.88;;
74650;SDS011;63169;46.042;14.592;2023-02-15T01:30:56;27.27;;;12.25;;
74650;SDS011;63169;46.042;14.592;2023-02-15T01:33:21;26.20;;;13.13;;
74650;SDS011;63169;46.042;14.592;2023-02-15T01:35:47;28.70;;;13.07;;
74650;SDS011;63169;46.042;14.592;2023-02-15T01:38:12;26.60;;;13.40;;
74650;SDS011;63169;46.042;14.592;2023-02-15T01:40:38;25.27;;;12.43;;
74650;SDS011;63169;46.042;14.592;2023-02-15T01:43:10;26.38;;;12.05;;
74650;SDS011;63169;46.042;14.592;2023-02-15T01:45:37;26.15;;;12.68;;
74650;SDS011;63169;46.042;14.592;2023-02-15T01:48:08;23.83;;;12.73;;
74650;SDS011;63169;46.042;14.592;2023-02-15T01:50:56;26.30;;;13.30;;
74650;SDS011;63169;46.042;14.592;2023-02-15T01:55:55;24.00;;;12.85;;
74650;SDS011;63169;46.042;14.592;2023-02-15T01:58:24;26.92;;;12.70;;
74650;SDS011;63169;46.042;14.592;2023-02-15T02:00:51;21.98;;;11.75;;
74650;SDS011;63169;46.042;14.592;2023-02-15T02:03:18;25.35;;;12.77;;
74650;SDS011;63169;46.042;14.592;2023-02-15T02:05:54;25.70;;;12.27;;
74650;SDS011;63169;46.042;14.592;2023-02-15T02:08:20;21.42;;;12.02;;
74650;SDS011;63169;46.042;14.592;2023-02-15T02:10:45;21.30;;;11.70;;
74650;SDS011;63169;46.042;14.592;2023-02-15T02:13:10;21.20;;;11.25;;
74650;SDS011;63169;46.042;14.592;2023-02-15T02:36:43;22.55;;;10.93;;
74650;SDS011;63169;46.042;14.592;2023-02-15T02:39:14;18.77;;;10.07;;
74650;SDS011;63169;46.042;14.592;2023-02-15T02:44:13;21.67;;;9.43;;
74650;SDS011;63169;46.042;14.592;2023-02-15T02:46:53;19.75;;;10.40;;
74650;SDS011;63169;46.042;14.592;2023-02-15T02:49:30;22.50;;;11.30;;
74650;SDS011;63169;46.042;14.592;2023-02-15T02:52:04;19.40;;;9.88;;
74650;SDS011;63169;46.042;14.592;2023-02-15T02:54:53;19.63;;;10.25;;
74650;SDS011;63169;46.042;14.592;2023-02-15T02:57:19;22.92;;;10.38;;
74650;SDS011;63169;46.042;14.592;2023-02-15T02:59:47;24.35;;;11.45;;
74650;SDS011;63169;46.042;14.592;2023-02-15T03:02:16;23.17;;;11.05;;
74650;SDS011;63169;46.042;14.592;2023-02-15T03:04:45;26.25;;;11.13;;
74650;SDS011;63169;46.042;14.592;2023-02-15T03:07:17;24.50;;;12.02;;
74650;SDS011;63169;46.042;14.592;2023-02-15T03:12:13;24.33;;;11.10;;
74650;SDS011;63169;46.042;14.592;2023-02-15T03:14:53;24.60;;;12.02;;
74650;SDS011;63169;46.042;14.592;2023-02-15T03:17:22;25.02;;;13.27;;
74650;SDS011;63169;46.042;14.592;2023-02-15T03:19:49;21.27;;;11.77;;
74650;SDS011;63169;46.042;14.592;2023-02-15T03:22:18;25.33;;;12.55;;
74650;SDS011;63169;46.042;14.592;2023-02-15T03:30:06;26.10;;;13.57;;
74650;SDS011;63169;46.042;14.592;2023-02-15T03:32:33;35.80;;;14.45;;
74650;SDS011;63169;46.042;14.592;2023-02-15T03:34:59;35.78;;;13.63;;
74650;SDS011;63169;46.042;14.592;2023-02-15T03:45:56;38.88;;;15.25;;
74650;SDS011;63169;46.042;14.592;2023-02-15T03:48:26;38.05;;;15.00;;
74650;SDS011;63169;46.042;14.592;2023-02-15T03:50:55;45.08;;;15.38;;
74650;SDS011;63169;46.042;14.592;2023-02-15T03:53:42;35.50;;;15.05;;
74650;SDS011;63169;46.042;14.592;2023-02-15T03:56:08;42.08;;;16.73;;
74650;SDS011;63169;46.042;14.592;2023-02-15T03:58:33;43.13;;;15.98;;
74650;SDS011;63169;46.042;14.592;2023-02-15T04:01:25;33.17;;;15.77;;
74650;SDS011;63169;46.042;14.592;2023-02-15T04:04:12;35.25;;;15.50;;
74650;SDS011;63169;46.042;14.592;2023-02-15T04:06:41;34.92;;;15.82;;
74650;SDS011;63169;46.042;14.592;2023-02-15T04:09:07;43.20;;;17.40;;
74650;SDS011;63169;46.042;14.592;2023-02-15T04:11:50;41.60;;;16.35;;
74650;SDS011;63169;46.042;14.592;2023-02-15T04:14:16;37.10;;;16.25;;
74650;SDS011;63169;46.042;14.592;2023-02-15T04:17:00;37.38;;;15.38;;
74650;SDS011;63169;46.042;14.592;2023-02-15T04:19:25;36.67;;;14.88;;
74650;SDS011;63169;46.042;14.592;2023-02-15T04:22:09;33.90;;;13.70;;
74650;SDS011;63169;46.042;14.592;2023-02-15T04:24:53;31.42;;;12.85;;
74650;SDS011;63169;46.042;14.592;2023-02-15T04:27:41;30.88;;;12.43;;
74650;SDS011;63169;46.042;14.592;2023-02-15T04:30:08;37.42;;;12.90;;
74650;SDS011;63169;46.042;14.592;2023-02-15T04:32:34;32.10;;;14.27;;
74650;SDS011;63169;46.042;14.592;2023-02-15T04:35:00;33.03;;;13.82;;
74650;SDS011;63169;46.042;14.592;2023-02-15T04:37:25;39.15;;;14.48;;
74650;SDS011;63169;46.042;14.592;2023-02-15T04:39:51;31.85;;;13.70;;
74650;SDS011;63169;46.042;14.592;2023-02-15T04:42:16;33.03;;;13.32;;
74650;SDS011;63169;46.042;14.592;2023-02-15T04:44:42;35.35;;;14.75;;
74650;SDS011;63169;46.042;14.592;2023-02-15T04:47:07;29.48;;;13.05;;
74650;SDS011;63169;46.042;14.592;2023-02-15T04:49:32;42.15;;;15.77;;
74650;SDS011;63169;46.042;14.592;2023-02-15T04:51:58;38.38;;;14.35;;
74650;SDS011;63169;46.042;14.592;2023-02-15T04:54:23;42.20;;;14.90;;
74650;SDS011;63169;46.042;14.592;2023-02-15T04:56:49;44.20;;;14.13;;
74650;SDS011;63169;46.042;14.592;2023-02-15T04:59:14;32.92;;;15.13;;
74650;SDS011;63169;46.042;14.592;2023-02-15T05:01:39;38.20;;;14.75;;
74650;SDS011;63169;46.042;14.592;2023-02-15T05:04:05;37.08;;;15.43;;
74650;SDS011;63169;46.042;14.592;2023-02-15T05:06:30;38.53;;;14.70;;
74650;SDS011;63169;46.042;14.592;2023-02-15T05:08:56;40.72;;;16.00;;
74650;SDS011;63169;46.042;14.592;2023-02-15T05:11:23;34.50;;;15.93;;
74650;SDS011;63169;46.042;14.592;2023-02-15T05:13:49;37.38;;;16.42;;
74650;SDS011;63169;46.042;14.592;2023-02-15T05:16:14;42.38;;;16.42;;
74650;SDS011;63169;46.042;14.592;2023-02-15T05:18:39;46.88;;;17.63;;
74650;SDS011;63169;46.042;14.592;2023-02-15T05:21:05;37.80;;;16.00;;
74650;SDS011;63169;46.042;14.592;2023-02-15T05:23:30;42.03;;;16.17;;
74650;SDS011;63169;46.042;14.592;2023-02-15T05:25:56;42.88;;;14.57;;
74650;SDS011;63169;46.042;14.592;2023-02-15T05:28:39;34.08;;;15.65;;
74650;SDS011;63169;46.042;14.592;2023-02-15T05:31:12;40.17;;;18.15;;
74650;SDS011;63169;46.042;14.592;2023-02-15T05:33:38;40.72;;;16.15;;
74650;SDS011;63169;46.042;14.592;2023-02-15T05:36:04;39.85;;;15.48;;
74650;SDS011;63169;46.042;14.592;2023-02-15T05:38:30;34.60;;;14.65;;
74650;SDS011;63169;46.042;14.592;2023-02-15T05:40:56;40.00;;;14.65;;
74650;SDS011;63169;46.042;14.592;2023-02-15T05:43:22;37.83;;;17.27;;
74650;SDS011;63169;46.042;14.592;2023-02-15T05:45:48;47.33;;;15.95;;
74650;SDS011;63169;46.042;14.592;2023-02-15T05:48:14;45.03;;;15.68;;
74650;SDS011;63169;46.042;14.592;2023-02-15T05:50:40;40.35;;;17.75;;
74650;SDS011;63169;46.042;14.592;2023-02-15T05:53:06;35.13;;;16.17;;
74650;SDS011;63169;46.042;14.592;2023-02-15T05:55:31;45.03;;;18.17;;
74650;SDS011;63169;46.042;14.592;2023-02-15T05:57:56;40.33;;;17.10;;
74650;SDS011;63169;46.042;14.592;2023-02-15T06:00:22;48.58;;;18.08;;
74650;SDS011;63169;46.042;14.592;2023-02-15T06:02:48;46.63;;;18.13;;
74650;SDS011;63169;46.042;14.592;2023-02-15T06:05:13;42.70;;;20.92;;
74650;SDS011;63169;46.042;14.592;2023-02-15T06:07:39;47.42;;;22.33;;
74650;SDS011;63169;46.042;14.592;2023-02-15T06:10:04;45.47;;;18.10;;
74650;SDS011;63169;46.042;14.592;2023-02-15T06:12:30;50.90;;;18.85;;
74650;SDS011;63169;46.042;14.592;2023-02-15T06:14:55;51.83;;;20.17;;
74650;SDS011;63169;46.042;14.592;2023-02-15T06:17:21;50.78;;;22.05;;
74650;SDS011;63169;46.042;14.592;2023-02-15T06:19:46;53.58;;;20.15;;
74650;SDS011;63169;46.042;14.592;2023-02-15T06:22:12;49.25;;;21.08;;
74650;SDS011;63169;46.042;14.592;2023-02-15T06:24:39;51.40;;;21.73;;
74650;SDS011;63169;46.042;14.592;2023-02-15T06:27:04;45.35;;;19.85;;
74650;SDS011;63169;46.042;14.592;2023-02-15T06:29:30;43.20;;;18.45;;
74650;SDS011;63169;46.042;14.592;2023-02-15T06:31:55;40.88;;;18.83;;
74650;SDS011;63169;46.042;14.592;2023-02-15T06:34:20;42.90;;;18.95;;
74650;SDS011;63169;46.042;14.592;2023-02-15T06:36:46;46.85;;;19.52;;
74650;SDS011;63169;46.042;14.592;2023-02-15T06:39:11;47.65;;;19.75;;
74650;SDS011;63169;46.042;14.592;2023-02-15T06:41:36;47.17;;;20.63;;
74650;SDS011;63169;46.042;14.592;2023-02-15T06:44:02;49.58;;;21.17;;
74650;SDS011;63169;46.042;14.592;2023-02-15T06:46:27;44.75;;;20.08;;
74650;SDS011;63169;46.042;14.592;2023-02-15T06:48:53;46.10;;;21.67;;
74650;SDS011;63169;46.042;14.592;2023-02-15T06:51:18;52.83;;;23.50;;
74650;SDS011;63169;46.042;14.592;2023-02-15T06:53:43;45.90;;;20.35;;
74650;SDS011;63169;46.042;14.592;2023-02-15T06:56:10;46.55;;;20.70;;
74650;SDS011;63169;46.042;14.592;2023-02-15T06:58:36;57.13;;;20.15;;
74650;SDS011;63169;46.042;14.592;2023-02-15T07:01:02;49.38;;;21.33;;
74650;SDS011;63169;46.042;14.592;2023-02-15T07:03:28;52.40;;;19.80;;
74650;SDS011;63169;46.042;14.592;2023-02-15T07:05:56;53.15;;;21.50;;
74650;SDS011;63169;46.042;14.592;2023-02-15T07:08:23;48.60;;;20.13;;
74650;SDS011;63169;46.042;14.592;2023-02-15T07:10:49;53.17;;;20.83;;
74650;SDS011;63169;46.042;14.592;2023-02-15T07:13:15;53.42;;;22.25;;
74650;SDS011;63169;46.042;14.592;2023-02-15T07:15:41;46.88;;;19.55;;
74650;SDS011;63169;46.042;14.592;2023-02-15T07:18:06;51.47;;;21.98;;
74650;SDS011;63169;46.042;14.592;2023-02-15T07:20:32;51.97;;;20.83;;
74650;SDS011;63169;46.042;14.592;2023-02-15T07:23:00;48.80;;;20.27;;
74650;SDS011;63169;46.042;14.592;2023-02-15T07:25:26;48.03;;;20.10;;
74650;SDS011;63169;46.042;14.592;2023-02-15T07:27:57;58.22;;;22.38;;
74650;SDS011;63169;46.042;14.592;2023-02-15T07:30:23;51.60;;;21.92;;
74650;SDS011;63169;46.042;14.592;2023-02-15T07:32:49;54.85;;;21.90;;
74650;SDS011;63169;46.042;14.592;2023-02-15T07:35:33;46.00;;;20.48;;
74650;SDS011;63169;46.042;14.592;2023-02-15T07:37:59;56.72;;;21.45;;
74650;SDS011;63169;46.042;14.592;2023-02-15T07:40:24;63.13;;;24.90;;
74650;SDS011;63169;46.042;14.592;2023-02-15T07:42:50;60.63;;;27.40;;
74650;SDS011;63169;46.042;14.592;2023-02-15T07:45:18;53.50;;;21.50;;
74650;SDS011;63169;46.042;14.592;2023-02-15T07:47:43;118.13;;;49.97;;
74650;SDS011;63169;46.042;14.592;2023-02-15T07:50:09;58.63;;;25.40;;
74650;SDS011;63169;46.042;14.592;2023-02-15T07:52:34;49.33;;;20.90;;
74650;SDS011;63169;46.042;14.592;2023-02-15T07:55:00;45.00;;;20.55;;
74650;SDS011;63169;46.042;14.592;2023-02-15T07:57:25;51.55;;;21.25;;
74650;SDS011;63169;46.042;14.592;2023-02-15T07:59:50;52.40;;;21.90;;
74650;SDS011;63169;46.042;14.592;2023-02-15T08:02:16;47.08;;;21.13;;
74650;SDS011;63169;46.042;14.592;2023-02-15T08:04:41;46.50;;;20.58;;
74650;SDS011;63169;46.042;14.592;2023-02-15T08:07:06;46.13;;;20.80;;
74650;SDS011;63169;46.042;14.592;2023-02-15T08:09:32;52.05;;;21.98;;
74650;SDS011;63169;46.042;14.592;2023-02-15T08:11:58;46.47;;;22.23;;
74650;SDS011;63169;46.042;14.592;2023-02-15T08:14:23;50.10;;;20.15;;
74650;SDS011;63169;46.042;14.592;2023-02-15T08:16:52;48.80;;;20.13;;
74650;SDS011;63169;46.042;14.592;2023-02-15T08:22:07;50.00;;;22.05;;
74650;SDS011;63169;46.042;14.592;2023-02-15T08:24:33;48.17;;;21.80;;
74650;SDS011;63169;46.042;14.592;2023-02-15T08:27:02;49.28;;;21.63;;
74650;SDS011;63169;46.042;14.592;2023-02-15T08:29:29;47.40;;;20.55;;
74650;SDS011;63169;46.042;14.592;2023-02-15T08:31:59;46.13;;;21.85;;
74650;SDS011;63169;46.042;14.592;2023-02-15T08:34:36;46.08;;;21.73;;
74650;SDS011;63169;46.042;14.592;2023-02-15T08:37:03;42.20;;;23.80;;
74650;SDS011;63169;46.042;14.592;2023-02-15T08:39:28;46.05;;;20.95;;
74650;SDS011;63169;46.042;14.592;2023-02-15T08:41:54;42.25;;;20.77;;
74650;SDS011;63169;46.042;14.592;2023-02-15T08:44:19;47.63;;;21.55;;
74650;SDS011;63169;46.042;14.592;2023-02-15T08:46:46;52.47;;;22.77;;
74650;SDS011;63169;46.042;14.592;2023-02-15T08:49:14;53.17;;;22.98;;
74650;SDS011;63169;46.042;14.592;2023-02-15T08:51:46;50.70;;;22.35;;
74650;SDS011;63169;46.042;14.592;2023-02-15T08:54:13;62.60;;;26.25;;
74650;SDS011;63169;46.042;14.592;2023-02-15T08:56:41;56.03;;;26.80;;
74650;SDS011;63169;46.042;14.592;2023-02-15T08:59:11;60.80;;;25.00;;
74650;SDS011;63169;46.042;14.592;2023-02-15T09:01:47;58.83;;;24.35;;
74650;SDS011;63169;46.042;14.592;2023-02-15T09:04:14;62.75;;;26.23;;
74650;SDS011;63169;46.042;14.592;2023-02-15T09:06:41;57.25;;;23.98;;
74650;SDS011;63169;46.042;14.592;2023-02-15T09:09:09;56.40;;;23.20;;
74650;SDS011;63169;46.042;14.592;2023-02-15T09:11:36;60.45;;;26.77;;
74650;SDS011;63169;46.042;14.592;2023-02-15T09:14:07;59.05;;;25.65;;
74650;SDS011;63169;46.042;14.592;2023-02-15T09:16:35;60.65;;;24.88;;
74650;SDS011;63169;46.042;14.592;2023-02-15T09:19:02;118.97;;;61.50;;
74650;SDS011;63169;46.042;14.592;2023-02-15T09:21:29;57.55;;;26.92;;
74650;SDS011;63169;46.042;14.592;2023-02-15T09:23:56;60.75;;;25.30;;
74650;SDS011;63169;46.042;14.592;2023-02-15T09:26:24;69.55;;;27.90;;
74650;SDS011;63169;46.042;14.592;2023-02-15T09:28:51;63.13;;;26.75;;
74650;SDS011;63169;46.042;14.592;2023-02-15T09:33:50;59.03;;;24.88;;
74650;SDS011;63169;46.042;14.592;2023-02-15T09:36:20;64.50;;;25.77;;
74650;SDS011;63169;46.042;14.592;2023-02-15T09:38:50;57.60;;;24.65;;
74650;SDS011;63169;46.042;14.592;2023-02-15T09:44:08;62.58;;;26.40;;
74650;SDS011;63169;46.042;14.592;2023-02-15T09:49:36;69.10;;;27.98;;
74650;SDS011;63169;46.042;14.592;2023-02-15T09:54:44;62.17;;;26.52;;
74650;SDS011;63169;46.042;14.592;2023-02-15T09:57:40;61.88;;;24.33;;
74650;SDS011;63169;46.042;14.592;2023-02-15T10:11:10;60.17;;;26.05;;
74650;SDS011;63169;46.042;14.592;2023-02-15T10:20:00;60.75;;;27.13;;
74650;SDS011;63169;46.042;14.592;2023-02-15T10:25:31;61.60;;;26.17;;
74650;SDS011;63169;46.042;14.592;2023-02-15T10:28:16;60.70;;;25.30;;
74650;SDS011;63169;46.042;14.592;2023-02-15T10:30:50;65.78;;;27.90;;
74650;SDS011;63169;46.042;14.592;2023-02-15T10:38:40;65.25;;;28.40;;
74650;SDS011;63169;46.042;14.592;2023-02-15T10:49:19;60.83;;;27.20;;
74650;SDS011;63169;46.042;14.592;2023-02-15T11:00:05;76.63;;;33.55;;
74650;SDS011;63169;46.042;14.592;2023-02-15T11:07:55;61.97;;;26.77;;
74650;SDS011;63169;46.042;14.592;2023-02-15T11:12:53;61.55;;;27.10;;
74650;SDS011;63169;46.042;14.592;2023-02-15T11:15:30;60.15;;;28.77;;
74650;SDS011;63169;46.042;14.592;2023-02-15T11:18:01;66.32;;;27.52;;
74650;SDS011;63169;46.042;14.592;2023-02-15T11:20:36;68.90;;;27.45;;
74650;SDS011;63169;46.042;14.592;2023-02-15T11:23:13;72.10;;;28.52;;
74650;SDS011;63169;46.042;14.592;2023-02-15T11:25:41;69.55;;;29.08;;
74650;SDS011;63169;46.042;14.592;2023-02-15T11:28:10;75.18;;;28.55;;
74650;SDS011;63169;46.042;14.592;2023-02-15T11:30:44;61.58;;;26.90;;
74650;SDS011;63169;46.042;14.592;2023-02-15T11:33:32;59.90;;;27.38;;
74650;SDS011;63169;46.042;14.592;2023-02-15T11:36:03;60.22;;;26.55;;
74650;SDS011;63169;46.042;14.592;2023-02-15T11:38:32;59.67;;;27.38;;
74650;SDS011;63169;46.042;14.592;2023-02-15T11:41:09;58.28;;;27.73;;
74650;SDS011;63169;46.042;14.592;2023-02-15T11:43:37;60.60;;;25.67;;
74650;SDS011;63169;46.042;14.592;2023-02-15T11:46:15;58.50;;;26.30;;
74650;SDS011;63169;46.042;14.592;2023-02-15T11:48:40;65.28;;;29.17;;
74650;SDS011;63169;46.042;14.592;2023-02-15T11:51:25;64.63;;;30.23;;
74650;SDS011;63169;46.042;14.592;2023-02-15T11:53:52;64.40;;;28.02;;
74650;SDS011;63169;46.042;14.592;2023-02-15T11:56:20;58.85;;;28.38;;
74650;SDS011;63169;46.042;14.592;2023-02-15T11:58:49;65.78;;;29.27;;
74650;SDS011;63169;46.042;14.592;2023-02-15T12:04:04;63.42;;;29.63;;
74650;SDS011;63169;46.042;14.592;2023-02-15T12:06:49;61.35;;;27.98;;
74650;SDS011;63169;46.042;14.592;2023-02-15T12:09:34;63.17;;;29.48;;
74650;SDS011;63169;46.042;14.592;2023-02-15T12:15:08;59.83;;;26.92;;
74650;SDS011;63169;46.042;14.592;2023-02-15T12:17:37;53.05;;;25.48;;
74650;SDS011;63169;46.042;14.592;2023-02-15T12:20:19;53.03;;;26.13;;
74650;SDS011;63169;46.042;14.592;2023-02-15T12:25:41;50.78;;;24.95;;
74650;SDS011;63169;46.042;14.592;2023-02-15T12:28:26;50.65;;;23.77;;
74650;SDS011;63169;46.042;14.592;2023-02-15T12:31:02;49.25;;;22.25;;
74650;SDS011;63169;46.042;14.592;2023-02-15T12:33:31;56.70;;;24.85;;
74650;SDS011;63169;46.042;14.592;2023-02-15T12:36:16;52.65;;;25.35;;
74650;SDS011;63169;46.042;14.592;2023-02-15T12:39:02;52.90;;;23.27;;
74650;SDS011;63169;46.042;14.592;2023-02-15T12:41:29;43.78;;;21.85;;
74650;SDS011;63169;46.042;14.592;2023-02-15T12:46:32;51.95;;;26.20;;
74650;SDS011;63169;46.042;14.592;2023-02-15T12:51:42;43.38;;;19.73;;
74650;SDS011;63169;46.042;14.592;2023-02-15T12:56:49;39.33;;;19.83;;
74650;SDS011;63169;46.042;14.592;2023-02-15T12:59:14;32.30;;;17.77;;
74650;SDS011;63169;46.042;14.592;2023-02-15T13:01:45;56.10;;;26.15;;
74650;SDS011;63169;46.042;14.592;2023-02-15T13:06:51;32.85;;;16.48;;
74650;SDS011;63169;46.042;14.592;2023-02-15T13:12:09;36.38;;;17.95;;
74650;SDS011;63169;46.042;14.592;2023-02-15T13:14:37;50.65;;;18.60;;
74650;SDS011;63169;46.042;14.592;2023-02-15T13:17:03;34.35;;;16.55;;
74650;SDS011;63169;46.042;14.592;2023-02-15T13:22:20;33.20;;;16.42;;
74650;SDS011;63169;46.042;14.592;2023-02-15T13:24:57;33.75;;;17.98;;
74650;SDS011;63169;46.042;14.592;2023-02-15T13:27:27;35.00;;;18.50;;
74650;SDS011;63169;46.042;14.592;2023-02-15T13:30:00;30.73;;;17.13;;
74650;SDS011;63169;46.042;14.592;2023-02-15T13:32:38;33.22;;;18.20;;
74650;SDS011;63169;46.042;14.592;2023-02-15T13:35:09;32.80;;;16.75;;
74650;SDS011;63169;46.042;14.592;2023-02-15T13:37:49;35.28;;;17.38;;
74650;SDS011;63169;46.042;14.592;2023-02-15T13:40:22;38.28;;;18.52;;
74650;SDS011;63169;46.042;14.592;2023-02-15T13:42:53;45.17;;;18.58;;
74650;SDS011;63169;46.042;14.592;2023-02-15T13:45:40;33.13;;;16.75;;
74650;SDS011;63169;46.042;14.592;2023-02-15T13:51:06;31.73;;;15.48;;
74650;SDS011;63169;46.042;14.592;2023-02-15T14:12:45;36.15;;;18.33;;
74650;SDS011;63169;46.042;14.592;2023-02-15T14:15:38;35.30;;;18.65;;
74650;SDS011;63169;46.042;14.592;2023-02-15T14:25:52;33.70;;;17.00;;
74650;SDS011;63169;46.042;14.592;2023-02-15T14:28:28;36.17;;;18.17;;
74650;SDS011;63169;46.042;14.592;2023-02-15T14:30:58;37.97;;;19.35;;
74650;SDS011;63169;46.042;14.592;2023-02-15T14:33:35;37.72;;;18.70;;
74650;SDS011;63169;46.042;14.592;2023-02-15T14:36:04;34.58;;;19.58;;
74650;SDS011;63169;46.042;14.592;2023-02-15T14:41:53;36.63;;;18.27;;
74650;SDS011;63169;46.042;14.592;2023-02-15T14:44:27;38.92;;;19.75;;
74650;SDS011;63169;46.042;14.592;2023-02-15T14:49:56;42.15;;;19.88;;
74650;SDS011;63169;46.042;14.592;2023-02-15T14:52:21;38.88;;;21.25;;
74650;SDS011;63169;46.042;14.592;2023-02-15T15:02:07;39.97;;;20.58;;
74650;SDS011;63169;46.042;14.592;2023-02-15T15:04:38;35.72;;;19.98;;
74650;SDS011;63169;46.042;14.592;2023-02-15T15:07:22;38.63;;;20.05;;
74650;SDS011;63169;46.042;14.592;2023-02-15T15:12:48;36.83;;;19.30;;
74650;SDS011;63169;46.042;14.592;2023-02-15T15:15:39;37.35;;;19.83;;
74650;SDS011;63169;46.042;14.592;2023-02-15T15:18:10;35.20;;;20.73;;
74650;SDS011;63169;46.042;14.592;2023-02-15T15:42:29;34.42;;;17.45;;
74650;SDS011;63169;46.042;14.592;2023-02-15T15:50:58;29.05;;;14.63;;
74650;SDS011;63169;46.042;14.592;2023-02-15T15:53:26;30.40;;;14.82;;
74650;SDS011;63169;46.042;14.592;2023-02-15T15:55:58;30.55;;;15.85;;
74650;SDS011;63169;46.042;14.592;2023-02-15T15:58:27;30.65;;;15.02;;
74650;SDS011;63169;46.042;14.592;2023-02-15T16:01:06;28.67;;;15.68;;
74650;SDS011;63169;46.042;14.592;2023-02-15T16:03:34;34.78;;;16.13;;
74650;SDS011;63169;46.042;14.592;2023-02-15T16:05:59;27.25;;;15.15;;
74650;SDS011;63169;46.042;14.592;2023-02-15T16:08:35;32.15;;;17.38;;
74650;SDS011;63169;46.042;14.592;2023-02-15T16:11:08;31.27;;;16.85;;
74650;SDS011;63169;46.042;14.592;2023-02-15T16:13:36;32.42;;;16.58;;
74650;SDS011;63169;46.042;14.592;2023-02-15T16:16:01;29.20;;;16.45;;
74650;SDS011;63169;46.042;14.592;2023-02-15T16:18:27;35.13;;;16.25;;
74650;SDS011;63169;46.042;14.592;2023-02-15T16:20:59;29.42;;;15.63;;
74650;SDS011;63169;46.042;14.592;2023-02-15T16:23:31;40.45;;;16.65;;
74650;SDS011;63169;46.042;14.592;2023-02-15T16:28:51;40.28;;;19.77;;
74650;SDS011;63169;46.042;14.592;2023-02-15T16:31:17;37.13;;;18.92;;
74650;SDS011;63169;46.042;14.592;2023-02-15T16:33:43;35.10;;;15.75;;
74650;SDS011;63169;46.042;14.592;2023-02-15T16:36:30;30.30;;;15.40;;
74650;SDS011;63169;46.042;14.592;2023-02-15T16:41:30;34.53;;;17.08;;
74650;SDS011;63169;46.042;14.592;2023-02-15T16:43:57;37.45;;;16.83;;
74650;SDS011;63169;46.042;14.592;2023-02-15T16:46:33;36.17;;;17.02;;
74650;SDS011;63169;46.042;14.592;2023-02-15T16:49:02;34.35;;;18.88;;
74650;SDS011;63169;46.042;14.592;2023-02-15T16:51:30;34.50;;;18.25;;
74650;SDS011;63169;46.042;14.592;2023-02-15T16:54:01;40.17;;;19.75;;
74650;SDS011;63169;46.042;14.592;2023-02-15T16:56:30;35.50;;;16.92;;
74650;SDS011;63169;46.042;14.592;2023-02-15T16:58:57;35.42;;;16.35;;
74650;SDS011;63169;46.042;14.592;2023-02-15T17:01:24;37.25;;;19.17;;
74650;SDS011;63169;46.042;14.592;2023-02-15T17:04:16;43.40;;;21.63;;
74650;SDS011;63169;46.042;14.592;2023-02-15T17:09:29;35.92;;;17.85;;
74650;SDS011;63169;46.042;14.592;2023-02-15T17:11:54;34.83;;;17.80;;
74650;SDS011;63169;46.042;14.592;2023-02-15T17:14:21;36.72;;;17.63;;
74650;SDS011;63169;46.042;14.592;2023-02-15T17:16:52;36.72;;;16.67;;
74650;SDS011;63169;46.042;14.592;2023-02-15T17:19:20;35.10;;;19.20;;
74650;SDS011;63169;46.042;14.592;2023-02-15T17:21:56;37.03;;;17.75;;
74650;SDS011;63169;46.042;14.592;2023-02-15T17:24:34;37.42;;;16.75;;
74650;SDS011;63169;46.042;14.592;2023-02-15T17:27:01;33.45;;;16.42;;
74650;SDS011;63169;46.042;14.592;2023-02-15T17:32:05;37.28;;;17.60;;
74650;SDS011;63169;46.042;14.592;2023-02-15T17:37:28;35.90;;;19.40;;
74650;SDS011;63169;46.042;14.592;2023-02-15T17:42:49;33.63;;;16.52;;
74650;SDS011;63169;46.042;14.592;2023-02-15T17:45:14;37.50;;;19.67;;
74650;SDS011;63169;46.042;14.592;2023-02-15T17:47:40;38.60;;;20.75;;
74650;SDS011;63169;46.042;14.592;2023-02-15T17:50:06;41.92;;;21.33;;
74650;SDS011;63169;46.042;14.592;2023-02-15T17:52:32;40.28;;;20.52;;
74650;SDS011;63169;46.042;14.592;2023-02-15T17:54:58;40.35;;;20.05;;
74650;SDS011;63169;46.042;14.592;2023-02-15T17:57:42;43.10;;;19.73;;
74650;SDS011;63169;46.042;14.592;2023-02-15T18:00:09;42.92;;;20.33;;
74650;SDS011;63169;46.042;14.592;2023-02-15T18:02:57;43.95;;;22.38;;